This is the latest recevied weather packets stored in our database for station/object KC9BHQ-13. If no packets are shown the sender has not sent any weather packets the latest 10 day(s).
| Time | Temp. | Humidity | Pressure | Rain* | Wind** | Luminosity | Snow |
|---|---|---|---|---|---|---|---|
| 1777720441 | 5° C | 95% | - | 0 mm | - | - | - |
| 1777703611 | 6.11° C | 99% | - | 0 mm | - | - | - |
| 1777613860 | 12.22° C | 78% | - | 0 mm | - | - | - |
| 1777601926 | 12.78° C | 69% | - | 0 mm | - | - | - |
| 1777599784 | 13.33° C | 68% | - | 0 mm | - | - | - |
| 1777565780 | 16.11° C | 47% | - | 0 mm | - | - | - |
| 1777565475 | 15.56° C | 48% | - | 0 mm | - | - | - |
| 1777556294 | 13.89° C | 67% | - | 0 mm | - | - | - |
| 1777552532 | 9.44° C | 91% | - | 0 mm | - | - | - |
| 1777537484 | 4.44° C | 99% | - | 0 mm | - | - | - |
| 1777532894 | 5.56° C | 99% | - | 0 mm | - | - | - |
| 1777525856 | 7.78° C | 84% | - | 0 mm | - | - | - |
| 1777496875 | 18.33° C | 59% | - | 0 mm | - | - | - |
| 1777484938 | 17.22° C | 66% | - | 0 mm | - | - | - |
| 1777481572 | 17.78° C | 67% | - | 0 mm | - | - | - |
| 1777447027 | 12.78° C | 99% | - | 0 mm | - | - | - |
| 1777432951 | 13.89° C | 99% | - | 0 mm | - | - | - |
| 1777427443 | 14.44° C | 96% | - | 0 mm | - | - | - |
| 1777420945 | 16.67° C | 88% | - | 0 mm | - | - | - |
| 1777363899 | 15° C | 99% | - | 0 mm | - | - | - |
| 1777360227 | 15° C | 99% | - | 0 mm | - | - | - |
| 1777354412 | 15° C | 99% | - | 0 mm | - | - | - |
| 1777350740 | 15.56° C | 99% | - | 0 mm | - | - | - |
| 1777307732 | 16.11° C | 99% | - | 0 mm | - | - | - |
| 1777293619 | 15° C | 93% | - | 0 mm | - | - | - |
* Rain latest hour (hover to see other rain measurements)
** Current wind speed in m/s (hover to see current wind gust speed)